Time;durP1;ratioP1;P1;durP2;ratioP2;P2;SDS_P1;SDS_P2;PMS_P1;PMS_P2;Temp;Humidity;BMP_temperature;BMP_pressure;BME280_temperature;BME280_humidity;BME280_pressure;Samples;Min_cycle;Max_cycle;Signal;HPM_P1;HPM_P2
2022/09/28 00:01:23;;;;;;;25.98;18.33;;;8.60;99.90;;;;;;5029643;28;20041;-43
2022/09/28 00:03:51;;;;;;;26.38;17.73;;;8.40;99.90;;;;;;5031116;28;20045;-44
2022/09/28 00:06:23;;;;;;;24.95;18.00;;;8.50;99.90;;;;;;5029913;28;20496;-44
2022/09/28 00:08:49;;;;;;;27.70;18.58;;;8.40;99.90;;;;;;5031136;28;20095;-43
2022/09/28 00:11:17;;;;;;;27.60;18.60;;;8.50;99.90;;;;;;5030928;28;20033;-44
2022/09/28 00:13:44;;;;;;;28.95;18.77;;;8.40;99.90;;;;;;5030331;28;20090;-43
2022/09/28 00:16:15;;;;;;;27.02;19.20;;;8.60;99.90;;;;;;5030763;28;20044;-44
2022/09/28 00:18:42;;;;;;;29.85;19.13;;;8.70;99.90;;;;;;5030833;28;20049;-43
2022/09/28 00:21:10;;;;;;;26.75;20.13;;;8.50;99.90;;;;;;5036516;28;20507;-45
2022/09/28 00:24:11;;;;;;;24.80;19.48;;;8.40;99.90;;;;;;5049546;28;20061;-44
2022/09/28 00:26:29;;;;;;;32.28;19.15;;;8.70;99.90;;;;;;5050510;28;20056;-43
2022/09/28 00:28:58;;;;;;;29.83;20.05;;;8.50;99.90;;;;;;5049603;28;20040;-43
2022/09/28 00:31:27;;;;;;;27.40;19.52;;;8.30;99.90;;;;;;5050979;28;20089;-42
2022/09/28 00:33:55;;;;;;;26.73;19.50;;;8.40;99.90;;;;;;5050738;28;20392;-43
2022/09/28 00:36:22;;;;;;;29.30;20.02;;;8.50;99.90;;;;;;5050786;28;20055;-42
2022/09/28 00:38:48;;;;;;;31.73;20.73;;;8.50;99.90;;;;;;5032233;28;20106;-42
2022/09/28 00:41:14;;;;;;;30.67;19.67;;;8.50;99.90;;;;;;5050669;28;20541;-45
2022/09/28 00:43:40;;;;;;;27.48;20.08;;;8.40;99.90;;;;;;5050064;28;20159;-43
2022/09/28 00:46:22;;;;;;;28.02;19.42;;;8.40;99.90;;;;;;5048288;28;20127;-44
2022/09/28 00:49:10;;;;;;;32.78;20.50;;;8.50;99.90;;;;;;5048237;28;20037;-42
2022/09/28 00:51:40;;;;;;;31.08;21.45;;;8.60;99.90;;;;;;5050404;28;20485;-42
2022/09/28 00:54:07;;;;;;;29.23;20.10;;;8.30;99.90;;;;;;5050683;28;20040;-42
2022/09/28 00:56:39;;;;;;;28.27;19.92;;;8.30;99.90;;;;;;5050609;28;20488;-44
2022/09/28 00:59:07;;;;;;;29.83;20.15;;;8.30;99.90;;;;;;5050601;28;20037;-44
2022/09/28 01:01:33;;;;;;;28.90;20.27;;;8.30;99.90;;;;;;5050542;28;20115;-43
2022/09/28 01:04:01;;;;;;;30.98;20.65;;;8.50;99.90;;;;;;5049013;28;20041;-44
2022/09/28 01:06:30;;;;;;;32.33;20.48;;;8.50;99.90;;;;;;5050419;28;20049;-43
2022/09/28 01:08:58;;;;;;;30.27;19.23;;;8.20;99.90;;;;;;5050497;28;20492;-43
2022/09/28 01:11:25;;;;;;;31.75;20.85;;;8.50;99.90;;;;;;5050393;28;20037;-43
2022/09/28 01:13:54;;;;;;;28.90;20.58;;;8.40;99.90;;;;;;5050139;28;20037;-43
2022/09/28 01:16:37;;;;;;;31.02;20.67;;;8.20;99.90;;;;;;5049220;28;20480;-43
2022/09/28 01:19:21;;;;;;;31.23;20.00;;;8.20;99.90;;;;;;5049821;28;20037;-46
2022/09/28 01:21:50;;;;;;;;;;;8.20;99.90;;;;;;5050434;28;20088;-43
2022/09/28 01:24:43;;;;;;;27.45;17.55;;;8.40;99.90;;;;;;5050489;28;19963;-47
2022/09/28 01:27:41;;;;;;;30.88;19.30;;;8.20;99.90;;;;;;5050066;28;20080;-43
2022/09/28 01:30:11;;;;;;;30.08;19.00;;;8.20;99.90;;;;;;5034233;28;20052;-43
2022/09/28 01:32:55;;;;;;;28.73;20.48;;;8.30;99.90;;;;;;5050289;28;20037;-41
2022/09/28 01:35:42;;;;;;;33.85;21.30;;;8.10;99.90;;;;;;5049967;28;20068;-42
2022/09/28 01:38:25;;;;;;;31.52;21.02;;;8.40;99.90;;;;;;5051178;28;20043;-45
2022/09/28 01:40:52;;;;;;;30.73;21.77;;;8.40;99.90;;;;;;5052576;28;20496;-44
2022/09/28 01:43:29;;;;;;;30.98;20.58;;;8.30;99.90;;;;;;5053250;28;20098;-44
2022/09/28 01:46:00;;;;;;;29.55;20.85;;;8.10;99.90;;;;;;5052287;28;20112;-45
2022/09/28 01:48:36;;;;;;;34.33;20.98;;;8.20;99.90;;;;;;5053776;28;20071;-44
2022/09/28 01:51:06;;;;;;;35.28;22.15;;;8.20;99.90;;;;;;5053085;28;20037;-42
2022/09/28 01:53:37;;;;;;;34.03;21.42;;;8.20;99.90;;;;;;5053728;28;20535;-47
2022/09/28 01:56:14;;;;;;;33.60;21.60;;;8.40;99.90;;;;;;5053681;28;20037;-45
2022/09/28 01:59:09;;;;;;;32.33;20.85;;;8.30;99.90;;;;;;5053600;28;20037;-42
2022/09/28 02:02:06;;;;;;;32.67;21.00;;;8.40;99.90;;;;;;5053536;28;20041;-44
2022/09/28 02:04:38;;;;;;;31.67;21.20;;;8.40;99.90;;;;;;5051987;28;20144;-45
2022/09/28 02:07:17;;;;;;;35.83;22.38;;;8.50;99.90;;;;;;5053307;28;20098;-44
2022/09/28 02:09:51;;;;;;;36.88;22.83;;;8.50;99.90;;;;;;5050562;28;20040;-42
2022/09/28 02:12:45;;;;;;;31.08;21.98;;;8.20;99.90;;;;;;5053385;28;20530;-44
2022/09/28 02:15:33;;;;;;;34.25;21.95;;;8.50;99.90;;;;;;5053251;28;20037;-48
2022/09/28 02:17:59;;;;;;;34.33;21.38;;;8.20;99.90;;;;;;5052753;28;20060;-44
2022/09/28 02:20:26;;;;;;;35.17;22.17;;;8.40;99.90;;;;;;5052752;28;20037;-45
2022/09/28 02:22:55;;;;;;;35.28;22.52;;;8.30;99.90;;;;;;5034834;28;20524;-44
2022/09/28 02:25:52;;;;;;;36.20;21.75;;;8.20;99.90;;;;;;5052931;28;20081;-44
2022/09/28 02:28:18;;;;;;;34.42;21.95;;;8.50;99.90;;;;;;5036771;28;20537;-45
2022/09/28 02:30:44;;;;;;;35.45;22.90;;;8.50;99.90;;;;;;5052990;28;20068;-44
2022/09/28 02:33:23;;;;;;;39.60;23.75;;;8.30;99.90;;;;;;5052534;28;20384;-44
2022/09/28 02:35:49;;;;;;;37.55;24.33;;;8.20;99.90;;;;;;5052940;28;20602;-43
2022/09/28 02:38:15;;;;;;;42.05;24.95;;;8.50;99.90;;;;;;5052862;28;20037;-44
2022/09/28 02:40:46;;;;;;;45.72;26.00;;;8.20;99.90;;;;;;5052732;28;20169;-42
2022/09/28 02:43:30;;;;;;;47.40;27.52;;;8.20;99.90;;;;;;5052443;28;20036;-43
2022/09/28 02:46:15;;;;;;;47.00;26.70;;;8.50;99.90;;;;;;5052797;28;20044;-45
2022/09/28 02:49:10;;;;;;;50.28;28.05;;;8.40;99.90;;;;;;5052536;28;20125;-43
2022/09/28 02:52:07;;;;;;;55.00;28.63;;;8.50;99.90;;;;;;5052100;28;20393;-45
2022/09/28 02:55:05;;;;;;;49.25;28.00;;;8.50;99.90;;;;;;5052478;28;20044;-44
2022/09/28 02:58:23;;;;;;;48.35;27.65;;;8.30;99.90;;;;;;5052211;28;20939;-42
2022/09/28 03:00:59;;;;;;;46.58;26.65;;;8.30;99.90;;;;;;5009979;28;20044;-43
2022/09/28 03:03:40;;;;;;;49.40;28.20;;;8.20;99.90;;;;;;5052323;28;20040;-46
2022/09/28 03:06:26;;;;;;;60.30;27.65;;;8.40;99.90;;;;;;5052279;28;20040;-43
2022/09/28 03:09:16;;;;;;;103.10;31.42;;;8.30;99.90;;;;;;5052170;28;20072;-43
2022/09/28 03:11:47;;;;;;;52.13;28.17;;;8.40;99.90;;;;;;5051937;28;20067;-45
2022/09/28 03:14:13;;;;;;;62.70;29.85;;;8.20;99.90;;;;;;5051719;28;20033;-43
2022/09/28 03:16:43;;;;;;;57.08;29.40;;;8.20;99.90;;;;;;5019600;28;20049;-44
2022/09/28 03:19:14;;;;;;;53.55;28.35;;;8.40;99.90;;;;;;5050654;28;20099;-42
2022/09/28 03:21:40;;;;;;;68.65;29.88;;;8.30;99.90;;;;;;5050114;28;20095;-44
2022/09/28 03:24:09;;;;;;;73.85;27.55;;;8.20;99.90;;;;;;5049849;28;20136;-44
2022/09/28 03:26:34;;;;;;;57.28;27.05;;;8.10;99.90;;;;;;5051867;28;20045;-44
2022/09/28 03:29:00;;;;;;;53.00;28.17;;;8.30;99.90;;;;;;5051664;28;20068;-43
2022/09/28 03:31:26;;;;;;;58.50;28.98;;;8.30;99.90;;;;;;5051747;28;20044;-44
2022/09/28 03:33:52;;;;;;;60.08;28.38;;;8.20;99.90;;;;;;5051262;28;20130;-42
2022/09/28 03:36:18;;;;;;;52.13;27.90;;;8.00;99.90;;;;;;5051719;28;20072;-43
2022/09/28 03:38:44;;;;;;;46.28;26.42;;;8.10;99.90;;;;;;5050325;28;20502;-43
2022/09/28 03:41:09;;;;;;;63.83;26.70;;;8.20;99.90;;;;;;5050104;28;20037;-43
2022/09/28 03:43:35;;;;;;;52.30;27.45;;;8.10;99.90;;;;;;5051158;28;20043;-44
2022/09/28 03:46:01;;;;;;;53.72;27.13;;;8.30;99.90;;;;;;5051461;28;20538;-42
2022/09/28 03:48:29;;;;;;;56.42;26.73;;;8.30;99.90;;;;;;5051276;28;20456;-43
2022/09/28 03:50:56;;;;;;;64.22;26.67;;;8.10;99.90;;;;;;5051449;28;20434;-44
2022/09/28 03:53:22;;;;;;;56.72;26.23;;;8.00;99.90;;;;;;5051399;28;20396;-43
2022/09/28 03:55:49;;;;;;;103.72;29.00;;;8.00;99.90;;;;;;5051311;28;20032;-44
2022/09/28 03:58:16;;;;;;;97.63;28.17;;;8.30;99.90;;;;;;5051046;28;20124;-43
2022/09/28 04:00:42;;;;;;;72.68;29.67;;;8.10;99.90;;;;;;5051340;28;20048;-44
2022/09/28 04:03:08;;;;;;;98.80;30.50;;;8.00;99.90;;;;;;5034409;28;21258;-43
2022/09/28 04:05:34;;;;;;;73.55;29.00;;;8.10;99.90;;;;;;5051070;28;20044;-46
2022/09/28 04:07:59;;;;;;;83.95;29.65;;;7.90;99.90;;;;;;5050659;28;20055;-42
2022/09/28 04:10:25;;;;;;;72.80;29.52;;;8.20;99.90;;;;;;5050636;28;20037;-46
2022/09/28 04:12:55;;;;;;;61.20;28.67;;;7.90;99.90;;;;;;5049185;28;20033;-43
2022/09/28 04:15:22;;;;;;;78.53;27.25;;;8.10;99.90;;;;;;5051071;28;20465;-42
2022/09/28 04:17:48;;;;;;;111.05;31.95;;;8.10;99.90;;;;;;5050843;28;20032;-48
2022/09/28 04:20:14;;;;;;;77.05;31.08;;;8.20;99.90;;;;;;5051040;28;20377;-42
2022/09/28 04:22:39;;;;;;;54.53;29.02;;;8.00;99.90;;;;;;5048864;28;20579;-43
2022/09/28 04:25:06;;;;;;;93.07;31.17;;;8.20;99.90;;;;;;5050938;28;20036;-44
2022/09/28 04:30:16;;;;;;;58.13;30.02;;;8.00;99.90;;;;;;5050865;28;20095;-44
2022/09/28 04:32:41;;;;;;;55.97;28.83;;;8.20;99.90;;;;;;5050911;28;20072;-45
2022/09/28 04:35:10;;;;;;;59.75;30.08;;;8.00;99.90;;;;;;5050878;28;20040;-47
2022/09/28 04:37:36;;;;;;;47.60;27.23;;;8.00;99.90;;;;;;5050599;28;20542;-44
2022/09/28 04:40:02;;;;;;;45.97;25.48;;;8.20;99.90;;;;;;5050770;28;20045;-43
2022/09/28 04:42:28;;;;;;;42.60;25.10;;;7.90;99.90;;;;;;5050818;28;20563;-44
2022/09/28 04:44:55;;;;;;;45.35;27.00;;;8.20;99.90;;;;;;5050271;28;20120;-44
2022/09/28 04:47:21;;;;;;;45.30;26.23;;;7.90;99.90;;;;;;5050586;28;20044;-45
2022/09/28 04:49:47;;;;;;;48.63;25.65;;;8.10;99.90;;;;;;5049253;28;20091;-42
2022/09/28 04:52:12;;;;;;;45.70;26.52;;;8.00;99.90;;;;;;5049106;28;20439;-42
2022/09/28 04:54:38;;;;;;;42.50;24.90;;;8.20;99.90;;;;;;5050482;28;20384;-44
2022/09/28 04:57:04;;;;;;;43.35;25.50;;;7.90;99.90;;;;;;5037876;28;20087;-45
2022/09/28 04:59:30;;;;;;;44.20;25.33;;;7.90;99.90;;;;;;5031083;28;20045;-45
2022/09/28 05:01:56;;;;;;;40.03;24.95;;;7.90;99.90;;;;;;5050317;28;20036;-44
2022/09/28 05:04:22;;;;;;;39.75;23.35;;;8.10;99.90;;;;;;5050643;28;20044;-44
2022/09/28 05:06:48;;;;;;;38.67;24.08;;;7.90;99.90;;;;;;5050584;28;20511;-45
2022/09/28 05:09:13;;;;;;;34.55;22.65;;;7.90;99.90;;;;;;5048089;28;20052;-43
2022/09/28 05:11:39;;;;;;;31.23;21.52;;;7.90;99.90;;;;;;5042346;28;20605;-43
2022/09/28 05:14:05;;;;;;;33.30;22.02;;;7.80;99.90;;;;;;5050024;28;20044;-46
2022/09/28 05:16:32;;;;;;;31.80;21.58;;;7.80;99.90;;;;;;5053782;28;20472;-44
2022/09/28 05:18:58;;;;;;;32.20;21.63;;;7.80;99.90;;;;;;5054243;28;20041;-44
2022/09/28 05:21:26;;;;;;;34.60;21.52;;;7.70;99.90;;;;;;5053935;28;20132;-42
2022/09/28 05:23:54;;;;;;;32.50;20.80;;;7.80;99.90;;;;;;5053887;28;20045;-46
2022/09/28 05:26:21;;;;;;;35.53;21.38;;;8.00;99.90;;;;;;5053863;28;20047;-48
2022/09/28 05:28:46;;;;;;;35.90;21.80;;;8.00;99.90;;;;;;5047144;28;20128;-47
2022/09/28 05:31:13;;;;;;;36.33;23.02;;;7.80;99.90;;;;;;5054075;28;20175;-43
2022/09/28 05:33:39;;;;;;;31.60;20.42;;;8.00;99.90;;;;;;5053921;28;20041;-44
2022/09/28 05:36:09;;;;;;;33.53;21.95;;;7.90;99.90;;;;;;5053578;28;20369;-45
2022/09/28 05:38:35;;;;;;;34.88;20.88;;;7.90;99.90;;;;;;5053548;28;20049;-45
2022/09/28 05:41:01;;;;;;;35.13;21.83;;;7.70;99.90;;;;;;5053960;28;20037;-46
2022/09/28 05:43:27;;;;;;;31.85;20.83;;;8.00;99.90;;;;;;5053366;28;20497;-44
2022/09/28 05:45:52;;;;;;;34.40;21.67;;;8.10;99.90;;;;;;5053550;28;20115;-43
2022/09/28 05:48:18;;;;;;;34.35;21.40;;;7.80;99.90;;;;;;5053592;28;20044;-43
2022/09/28 05:50:48;;;;;;;30.23;19.80;;;7.90;99.90;;;;;;5052101;28;20103;-44
2022/09/28 05:53:14;;;;;;;31.00;20.23;;;8.00;99.90;;;;;;5053336;28;20028;-42
2022/09/28 05:55:39;;;;;;;32.45;20.35;;;8.00;99.90;;;;;;5053629;28;20033;-45
2022/09/28 05:58:06;;;;;;;33.53;21.60;;;7.70;99.90;;;;;;5053447;28;20114;-44
2022/09/28 06:00:33;;;;;;;30.52;20.25;;;7.80;99.90;;;;;;5053412;28;20055;-44
2022/09/28 06:03:04;;;;;;;33.10;21.17;;;8.00;99.90;;;;;;5053562;28;20520;-45
2022/09/28 06:05:31;;;;;;;37.03;20.95;;;7.90;99.90;;;;;;5051793;28;20048;-45
2022/09/28 06:08:00;;;;;;;36.40;22.10;;;7.80;99.90;;;;;;5053391;28;20041;-44
2022/09/28 06:10:27;;;;;;;31.20;19.65;;;8.10;99.90;;;;;;5053243;28;20540;-44
2022/09/28 06:12:54;;;;;;;34.83;21.02;;;8.10;99.90;;;;;;5048818;28;20032;-44
2022/09/28 06:15:24;;;;;;;32.63;21.40;;;8.10;99.90;;;;;;5052769;28;20033;-43
2022/09/28 06:17:57;;;;;;;35.60;21.63;;;8.10;99.90;;;;;;5053547;28;20043;-43
2022/09/28 06:20:24;;;;;;;34.58;22.23;;;8.20;99.90;;;;;;5053162;28;20043;-44
2022/09/28 06:22:54;;;;;;;32.47;20.00;;;7.90;99.90;;;;;;5051403;28;20057;-45
2022/09/28 06:25:23;;;;;;;32.47;20.02;;;8.10;99.90;;;;;;5052660;28;20049;-45
2022/09/28 06:27:54;;;;;;;33.42;20.65;;;8.10;99.90;;;;;;5051281;28;20121;-43
2022/09/28 06:30:20;;;;;;;33.90;19.50;;;8.00;99.90;;;;;;5052947;28;20123;-43
2022/09/28 06:32:46;;;;;;;30.55;19.30;;;8.00;99.90;;;;;;5052970;28;20552;-44
2022/09/28 06:35:14;;;;;;;34.20;20.88;;;8.10;99.90;;;;;;5050178;28;20120;-45
2022/09/28 06:37:43;;;;;;;32.25;19.05;;;7.90;99.90;;;;;;5045845;28;20067;-44
2022/09/28 06:40:09;;;;;;;30.67;19.02;;;8.10;99.90;;;;;;5051520;28;20365;-43
2022/09/28 06:42:35;;;;;;;31.98;18.33;;;8.00;99.90;;;;;;5052649;28;20041;-47
2022/09/28 06:45:01;;;;;;;29.42;18.30;;;8.10;99.90;;;;;;5051731;28;20040;-44
2022/09/28 06:47:27;;;;;;;31.00;17.42;;;7.90;99.90;;;;;;5052031;28;20552;-43
2022/09/28 06:49:54;;;;;;;30.00;18.15;;;8.00;99.90;;;;;;5052017;28;20128;-43
2022/09/28 06:52:20;;;;;;;25.20;16.42;;;8.30;99.90;;;;;;5047140;28;20045;-47
2022/09/28 06:54:45;;;;;;;25.48;17.17;;;8.30;99.90;;;;;;5050601;28;20037;-46
2022/09/28 06:57:11;;;;;;;26.67;17.30;;;8.30;99.90;;;;;;5050812;28;20033;-42
2022/09/28 06:59:37;;;;;;;33.50;16.98;;;8.40;99.90;;;;;;5049592;28;20081;-42
2022/09/28 07:02:03;;;;;;;27.85;17.08;;;8.20;99.90;;;;;;5050990;28;20132;-44
2022/09/28 07:04:30;;;;;;;30.45;16.05;;;8.30;99.90;;;;;;5050512;28;20348;-44
2022/09/28 07:06:56;;;;;;;28.50;16.33;;;8.30;99.90;;;;;;5050491;28;20037;-46
2022/09/28 07:09:21;;;;;;;27.83;16.15;;;8.20;99.90;;;;;;5050443;28;20041;-45
2022/09/28 07:11:47;;;;;;;29.05;15.80;;;8.40;99.90;;;;;;5049889;28;20071;-47
2022/09/28 07:14:13;;;;;;;26.38;15.40;;;8.30;99.90;;;;;;5050341;28;20664;-44
2022/09/28 07:16:38;;;;;;;55.17;16.42;;;8.30;99.90;;;;;;5050247;28;20099;-44
2022/09/28 07:19:05;;;;;;;27.35;15.23;;;8.00;99.90;;;;;;5050641;28;20037;-43
2022/09/28 07:21:30;;;;;;;24.08;14.80;;;8.20;99.90;;;;;;5050037;28;20056;-42
2022/09/28 07:23:56;;;;;;;33.60;14.15;;;8.10;99.90;;;;;;5050299;28;20045;-46
2022/09/28 07:26:22;;;;;;;27.10;14.98;;;8.40;99.90;;;;;;5031264;28;21090;-44
2022/09/28 07:28:48;;;;;;;27.33;15.43;;;8.50;99.90;;;;;;5047425;28;20052;-42
2022/09/28 07:31:13;;;;;;;28.33;14.70;;;8.40;99.90;;;;;;5049968;28;20048;-43
2022/09/28 07:33:39;;;;;;;34.13;15.38;;;8.10;99.90;;;;;;5049591;28;20033;-43
2022/09/28 07:36:06;;;;;;;29.10;14.52;;;8.20;99.90;;;;;;5048828;28;20036;-42
2022/09/28 07:38:32;;;;;;;22.08;13.63;;;8.40;99.90;;;;;;5026480;28;20507;-47
2022/09/28 07:41:10;;;;;;;133.77;17.38;;;8.30;99.90;;;;;;5043098;28;20534;-46
2022/09/28 07:43:38;;;;;;;39.22;13.88;;;8.30;99.90;;;;;;5011219;28;20280;-45
2022/09/28 07:46:09;;;;;;;23.60;13.30;;;8.30;99.90;;;;;;5045678;28;20400;-42
2022/09/28 07:48:35;;;;;;;30.98;13.93;;;8.40;99.90;;;;;;5045585;28;20056;-44
2022/09/28 07:51:01;;;;;;;33.55;14.00;;;8.60;99.90;;;;;;5040398;28;20045;-43
2022/09/28 07:53:27;;;;;;;52.08;12.82;;;8.40;99.90;;;;;;5040438;28;20098;-42
2022/09/28 07:56:00;;;;;;;34.13;12.73;;;8.60;99.90;;;;;;5041421;28;20037;-41
2022/09/28 07:58:26;;;;;;;24.38;12.93;;;8.60;99.90;;;;;;5040845;28;20616;-43
2022/09/28 08:00:52;;;;;;;36.78;13.23;;;8.70;99.90;;;;;;5047366;28;20067;-46
2022/09/28 08:03:21;;;;;;;21.23;12.50;;;8.80;99.90;;;;;;5028268;28;20048;-44
2022/09/28 08:05:47;;;;;;;23.58;12.55;;;9.00;99.90;;;;;;5044002;28;20106;-44
2022/09/28 08:08:13;;;;;;;23.02;11.50;;;8.70;99.90;;;;;;5043083;28;20037;-47
2022/09/28 08:10:42;;;;;;;20.38;11.00;;;8.90;99.90;;;;;;5041923;28;20473;-43
2022/09/28 08:13:08;;;;;;;26.30;12.85;;;8.80;99.90;;;;;;5039554;28;20033;-43
2022/09/28 08:15:35;;;;;;;21.35;11.48;;;9.00;99.90;;;;;;5043016;28;20040;-45
2022/09/28 08:18:04;;;;;;;15.82;10.68;;;8.80;99.90;;;;;;5047126;28;20120;-47
2022/09/28 08:23:15;;;;;;;16.98;11.00;;;9.30;99.90;;;;;;5043005;28;20045;-45
2022/09/28 08:25:47;;;;;;;17.08;10.27;;;9.10;99.90;;;;;;5040616;28;20504;-45
2022/09/28 08:28:16;;;;;;;15.00;10.18;;;9.00;99.90;;;;;;5040051;28;20033;-43
2022/09/28 08:30:43;;;;;;;14.07;9.88;;;9.00;99.90;;;;;;5046620;28;20039;-45
2022/09/28 08:33:10;;;;;;;14.30;9.23;;;9.10;99.90;;;;;;5047011;28;20042;-44
2022/09/28 08:35:36;;;;;;;15.77;9.52;;;9.10;99.90;;;;;;5045610;28;20051;-45
2022/09/28 08:38:05;;;;;;;13.18;9.10;;;9.30;99.90;;;;;;5044190;28;20045;-44
2022/09/28 08:40:54;;;;;;;15.38;9.43;;;9.20;99.90;;;;;;5042160;28;20104;-44
2022/09/28 08:43:38;;;;;;;13.85;9.25;;;9.30;99.90;;;;;;4998650;28;20048;-44
2022/09/28 08:46:05;;;;;;;15.68;9.60;;;9.40;99.90;;;;;;5043179;28;20033;-45
2022/09/28 08:48:47;;;;;;;14.07;10.13;;;9.40;99.90;;;;;;5028879;28;20037;-43
2022/09/28 08:51:21;;;;;;;14.02;8.82;;;9.70;99.90;;;;;;5047678;28;20036;-44
2022/09/28 08:53:51;;;;;;;;;;;10.00;99.90;;;;;;5048379;28;20036;-43
2022/09/28 08:56:53;;;;;;;11.07;7.65;;;10.00;99.90;;;;;;5045975;28;19920;-44
2022/09/28 08:59:25;;;;;;;12.20;7.22;;;10.10;99.90;;;;;;5012149;28;20049;-46
2022/09/28 09:01:58;;;;;;;9.93;7.10;;;10.40;99.90;;;;;;5047562;28;20040;-43
2022/09/28 09:04:24;;;;;;;9.48;6.85;;;10.40;99.90;;;;;;5049564;28;20037;-42
2022/09/28 09:07:16;;;;;;;10.68;6.93;;;10.50;99.90;;;;;;5047693;28;20049;-44
2022/09/28 09:09:47;;;;;;;8.48;6.20;;;10.80;99.90;;;;;;5033240;28;20123;-44
2022/09/28 09:12:33;;;;;;;9.75;5.38;;;11.20;99.90;;;;;;5038896;28;20094;-46
2022/09/28 09:15:31;;;;;;;7.15;4.82;;;11.20;99.90;;;;;;5051920;28;20036;-43
2022/09/28 09:18:06;;;;;;;8.68;5.85;;;11.40;99.90;;;;;;5052993;28;20049;-43
2022/09/28 09:20:32;;;;;;;8.23;5.35;;;11.60;99.90;;;;;;5052659;28;20063;-45
2022/09/28 09:23:00;;;;;;;7.35;4.85;;;11.80;99.90;;;;;;5032996;28;20522;-44
2022/09/28 09:25:41;;;;;;;9.98;5.18;;;11.60;99.90;;;;;;5050810;28;20041;-45
2022/09/28 09:28:06;;;;;;;9.77;4.95;;;12.00;99.90;;;;;;5051359;28;20099;-46
2022/09/28 09:30:56;;;;;;;6.55;4.53;;;12.20;99.90;;;;;;5048147;28;20324;-44
2022/09/28 09:33:51;;;;;;;7.72;5.15;;;12.20;99.90;;;;;;5052970;28;20052;-43
2022/09/28 09:36:24;;;;;;;8.70;3.67;;;12.40;99.90;;;;;;5052855;28;20118;-46
2022/09/28 09:39:16;;;;;;;7.20;3.90;;;12.20;99.90;;;;;;5053472;28;20044;-43
2022/09/28 09:41:56;;;;;;;6.53;3.50;;;12.20;99.90;;;;;;5051678;28;20048;-45
2022/09/28 09:44:43;;;;;;;5.47;3.28;;;12.40;99.90;;;;;;5052547;28;20048;-44
2022/09/28 09:47:14;;;;;;;8.63;2.78;;;12.60;99.90;;;;;;5053589;28;20431;-44
2022/09/28 09:49:43;;;;;;;5.32;2.60;;;12.50;99.90;;;;;;5053453;28;20037;-45
2022/09/28 09:52:22;;;;;;;4.53;2.42;;;12.40;99.90;;;;;;5053641;28;20602;-46
2022/09/28 09:54:57;;;;;;;3.60;1.35;;;12.20;99.90;;;;;;5053685;28;20495;-44
2022/09/28 09:57:25;;;;;;;;;;;12.30;99.90;;;;;;5054176;28;20035;-46
2022/09/28 09:59:51;;;;;;;1.95;0.85;;;12.50;99.90;;;;;;5053579;28;19921;-42
2022/09/28 10:02:33;;;;;;;3.58;1.05;;;12.60;99.90;;;;;;5052088;28;20149;-45
2022/09/28 10:05:13;;;;;;;2.72;0.88;;;12.70;99.90;;;;;;5053361;28;20116;-47
2022/09/28 10:07:57;;;;;;;2.83;1.02;;;13.00;99.90;;;;;;5053542;28;20049;-45
2022/09/28 10:10:29;;;;;;;3.17;1.20;;;13.20;99.90;;;;;;5052917;28;20076;-44
2022/09/28 10:12:55;;;;;;;3.05;0.90;;;13.40;99.90;;;;;;5053401;28;20435;-48
2022/09/28 10:15:26;;;;;;;3.08;0.90;;;13.50;99.90;;;;;;5052877;28;20481;-44
2022/09/28 10:17:56;;;;;;;1.95;0.90;;;13.50;99.90;;;;;;5051198;28;20366;-46
2022/09/28 10:20:24;;;;;;;3.25;1.10;;;13.50;99.90;;;;;;5053282;28;20037;-46
2022/09/28 10:22:51;;;;;;;2.38;0.98;;;13.70;99.90;;;;;;5052610;28;20057;-43
2022/09/28 10:25:18;;;;;;;4.53;1.25;;;13.70;99.90;;;;;;5053109;28;20492;-45
2022/09/28 10:27:46;;;;;;;1.95;0.70;;;13.70;99.90;;;;;;5049672;28;20488;-45
2022/09/28 10:30:22;;;;;;;4.53;1.10;;;13.90;99.90;;;;;;5045798;28;20052;-46
2022/09/28 10:32:52;;;;;;;4.50;0.90;;;14.10;99.90;;;;;;5043693;28;20452;-45
2022/09/28 10:35:18;;;;;;;2.38;0.73;;;14.20;99.90;;;;;;5043823;28;20490;-46
2022/09/28 10:38:05;;;;;;;2.40;0.52;;;14.40;99.90;;;;;;5044816;28;20076;-47
2022/09/28 10:40:44;;;;;;;2.75;0.50;;;14.70;99.90;;;;;;5031799;28;20119;-47
2022/09/28 10:43:25;;;;;;;1.33;0.50;;;14.60;99.90;;;;;;5050660;28;20099;-45
2022/09/28 10:46:05;;;;;;;3.53;0.70;;;14.80;99.90;;;;;;5050976;28;20049;-45
2022/09/28 10:48:49;;;;;;;3.60;1.38;;;15.10;99.90;;;;;;5051130;28;20124;-49
2022/09/28 10:51:15;;;;;;;6.75;2.53;;;15.30;99.90;;;;;;5050337;28;20102;-45
2022/09/28 10:53:41;;;;;;;13.05;6.22;;;15.40;99.90;;;;;;5048128;28;20033;-46
2022/09/28 10:56:19;;;;;;;5.20;1.33;;;15.20;99.90;;;;;;5032939;28;20037;-46
2022/09/28 10:58:45;;;;;;;2.45;0.70;;;15.00;99.90;;;;;;5033227;28;20037;-47
2022/09/28 11:01:19;;;;;;;4.65;1.27;;;14.80;99.90;;;;;;5032913;28;20396;-48
2022/09/28 11:03:54;;;;;;;;;;;14.80;99.90;;;;;;5049155;28;20083;-46
2022/09/28 11:06:40;;;;;;;7.65;2.58;;;14.60;99.90;;;;;;5048952;28;19922;-45
2022/09/28 11:09:32;;;;;;;3.53;0.80;;;14.50;99.90;;;;;;5049483;28;20041;-45
2022/09/28 11:12:00;;;;;;;4.43;1.70;;;14.70;99.90;;;;;;5023403;28;20041;-45
2022/09/28 11:14:34;;;;;;;7.25;2.58;;;15.00;99.90;;;;;;5043671;28;20067;-46
2022/09/28 11:17:23;;;;;;;7.95;3.40;;;15.90;99.90;;;;;;5050569;28;20044;-44
2022/09/28 11:19:49;;;;;;;6.25;4.22;;;15.70;99.90;;;;;;5052231;28;20102;-46
2022/09/28 11:22:33;;;;;;;13.63;6.88;;;16.20;99.90;;;;;;5051447;28;20527;-49
2022/09/28 11:25:17;;;;;;;8.47;3.73;;;16.00;99.90;;;;;;5052033;28;20094;-45
2022/09/28 11:27:51;;;;;;;2.72;1.00;;;15.60;99.90;;;;;;5050973;28;20080;-44
2022/09/28 11:30:29;;;;;;;4.38;1.40;;;15.30;99.90;;;;;;5051168;28;20119;-48
2022/09/28 11:33:16;;;;;;;9.80;4.22;;;15.10;99.90;;;;;;5050592;28;20037;-45
2022/09/28 11:35:59;;;;;;;6.53;2.83;;;14.90;99.90;;;;;;5051211;28;20107;-49
2022/09/28 11:38:59;;;;;;;13.25;8.85;;;14.70;99.90;;;;;;5050427;28;20052;-44
2022/09/28 11:41:44;;;;;;;3.78;1.25;;;14.60;99.90;;;;;;5048243;28;20047;-43
2022/09/28 11:44:24;;;;;;;5.97;1.17;;;14.50;99.90;;;;;;5044107;28;20048;-45
2022/09/28 11:47:31;;;;;;;2.10;0.40;;;13.80;99.90;;;;;;5050845;28;20548;-45
2022/09/28 11:50:17;;;;;;;1.35;0.40;;;13.50;99.90;;;;;;4980027;28;20501;-49
2022/09/28 11:52:51;;;;;;;1.33;0.40;;;13.40;99.90;;;;;;5050963;28;20527;-43
2022/09/28 11:55:42;;;;;;;2.63;0.55;;;13.20;99.90;;;;;;5049455;28;20087;-45
2022/09/28 11:58:16;;;;;;;2.15;0.63;;;13.10;99.90;;;;;;5049268;28;20037;-43
2022/09/28 12:01:00;;;;;;;1.88;0.52;;;12.70;99.90;;;;;;5050129;28;20080;-49
2022/09/28 12:03:45;;;;;;;6.97;2.28;;;12.40;99.90;;;;;;5050700;28;20041;-45
2022/09/28 12:06:18;;;;;;;1.38;0.75;;;12.20;99.90;;;;;;5049469;28;20037;-47
2022/09/28 12:08:54;;;;;;;2.85;1.08;;;12.10;99.90;;;;;;5050879;28;20048;-43
2022/09/28 12:11:32;;;;;;;2.08;0.52;;;12.10;99.90;;;;;;5040907;28;20041;-45
2022/09/28 12:14:00;;;;;;;1.90;0.55;;;11.80;99.90;;;;;;5047511;28;20480;-44
2022/09/28 12:16:49;;;;;;;1.30;0.50;;;11.80;99.90;;;;;;5051085;28;20033;-47
2022/09/28 12:19:29;;;;;;;2.97;0.80;;;11.90;99.90;;;;;;5050013;28;20123;-49
2022/09/28 12:22:01;;;;;;;3.20;1.17;;;11.80;99.90;;;;;;5050649;28;20052;-46
2022/09/28 12:24:36;;;;;;;3.03;1.20;;;11.60;99.90;;;;;;5050342;28;20052;-44
2022/09/28 12:27:29;;;;;;;1.73;0.50;;;11.70;99.90;;;;;;5050516;28;20108;-46
2022/09/28 12:30:21;;;;;;;1.17;0.40;;;11.60;99.90;;;;;;5048326;28;20045;-44
2022/09/28 12:32:49;;;;;;;1.40;0.93;;;11.70;99.90;;;;;;5038017;28;20052;-47
2022/09/28 12:35:34;;;;;;;1.92;0.35;;;11.80;99.90;;;;;;5050302;28;20040;-44
2022/09/28 12:38:14;;;;;;;0.38;0.30;;;11.80;99.90;;;;;;5049552;28;20041;-44
2022/09/28 12:40:57;;;;;;;1.35;0.70;;;12.50;99.90;;;;;;5049987;28;20572;-48
2022/09/28 12:43:37;;;;;;;2.05;0.90;;;13.50;99.90;;;;;;5050838;28;20036;-47
2022/09/28 12:46:22;;;;;;;4.70;1.40;;;13.80;99.90;;;;;;5049951;28;20041;-45
2022/09/28 12:49:10;;;;;;;3.85;1.00;;;13.70;99.90;;;;;;5048953;28;20365;-47
2022/09/28 12:51:44;;;;;;;3.78;0.93;;;13.70;99.90;;;;;;5044191;28;20041;-44
2022/09/28 12:54:30;;;;;;;3.25;1.20;;;13.60;99.90;;;;;;5049223;28;20052;-45
2022/09/28 12:57:34;;;;;;;4.00;0.82;;;13.50;99.90;;;;;;5048934;28;20037;-46
2022/09/28 13:00:21;;;;;;;2.45;0.73;;;13.20;99.90;;;;;;5050072;28;20055;-46
2022/09/28 13:02:47;;;;;;;3.55;0.90;;;13.20;99.90;;;;;;5050437;28;20052;-44
2022/09/28 13:05:30;;;;;;;2.90;0.90;;;13.10;99.90;;;;;;5050196;28;20044;-46
2022/09/28 13:08:30;;;;;;;2.45;1.30;;;13.00;99.90;;;;;;5049960;28;20045;-47
2022/09/28 13:11:17;;;;;;;1.75;0.80;;;13.10;99.90;;;;;;5049971;28;20822;-45
2022/09/28 13:14:23;;;;;;;1.58;0.60;;;13.80;99.90;;;;;;5049751;28;20033;-44
2022/09/28 13:17:37;;;;;;;2.17;0.65;;;14.30;99.90;;;;;;5048838;28;20094;-46